createdAt,value
2023-09-02T00:00:32.059Z,101727.31
2023-09-02T00:03:02.055Z,101731.69
2023-09-02T00:05:31.961Z,101729.88
2023-09-02T00:08:01.819Z,101738.66
2023-09-02T00:10:31.678Z,101734.19
2023-09-02T00:13:04.719Z,101736.78
2023-09-02T00:15:34.659Z,101740.28
2023-09-02T00:18:04.588Z,101742.88
2023-09-02T00:20:34.487Z,101742.81
2023-09-02T00:23:04.318Z,101741.84
2023-09-02T00:25:34.203Z,101737.34
2023-09-02T00:28:07.083Z,101733.75
2023-09-02T00:30:37.038Z,101734.59
2023-09-02T00:33:07.708Z,101740.72
2023-09-02T00:35:37.604Z,101743.31
2023-09-02T00:38:07.853Z,101739.69
2023-09-02T00:40:38.076Z,101746.72
2023-09-02T00:43:10.504Z,101740.41
2023-09-02T00:45:41.496Z,101745.66
2023-09-02T00:48:11.405Z,101748.31
2023-09-02T00:50:41.556Z,101751.81
2023-09-02T00:53:11.674Z,101747.31
2023-09-02T00:55:42.820Z,101761.47
2023-09-02T00:58:15.977Z,101760.47
2023-09-02T01:00:45.992Z,101752.50
2023-09-02T01:03:16.255Z,101754.25
2023-09-02T01:05:46.591Z,101748.91
2023-09-02T01:08:20.479Z,101760.41
2023-09-02T01:10:51.894Z,101755.91
2023-09-02T01:13:24.388Z,101747.00
2023-09-02T01:15:55.926Z,101746.06
2023-09-02T01:18:26.066Z,101751.31
2023-09-02T01:21:13.260Z,101749.50
2023-09-02T01:24:13.068Z,101757.44
2023-09-02T01:27:21.277Z,101746.75
2023-09-02T01:29:58.606Z,101749.38
2023-09-02T01:32:36.108Z,101755.50
2023-09-02T01:35:08.567Z,101751.03
2023-09-02T01:37:43.566Z,101749.25
2023-09-02T01:40:23.483Z,101754.50
2023-09-02T01:42:57.781Z,101754.44
2023-09-02T01:45:30.096Z,101758.84
2023-09-02T01:48:00.897Z,101764.97
2023-09-02T01:50:33.660Z,101758.72
2023-09-02T01:53:04.277Z,101757.78
2023-09-02T01:55:34.731Z,101766.63
2023-09-02T01:58:07.622Z,101757.72
2023-09-02T02:00:37.809Z,101762.13
2023-09-02T02:03:09.970Z,101767.38
2023-09-02T02:05:46.124Z,101773.56
2023-09-02T02:08:20.313Z,101769.97
2023-09-02T02:10:52.408Z,101769.09
2023-09-02T02:13:24.915Z,101777.00
2023-09-02T02:15:54.806Z,101773.41
2023-09-02T02:18:24.693Z,101768.94
2023-09-02T02:21:02.886Z,101771.53
2023-09-02T02:23:33.009Z,101776.84
2023-09-02T02:26:04.262Z,101770.59
2023-09-02T02:28:37.636Z,101777.59
2023-09-02T02:31:08.385Z,101770.47
2023-09-02T02:33:38.553Z,101768.69
2023-09-02T02:36:10.894Z,101772.16
2023-09-02T02:38:40.757Z,101764.19
2023-09-02T02:41:10.602Z,101773.84
2023-09-02T02:43:43.058Z,101764.06
2023-09-02T02:46:12.932Z,101767.59
2023-09-02T02:48:42.871Z,101764.88
2023-09-02T02:51:12.729Z,101763.94
2023-09-02T02:53:42.606Z,101761.25
2023-09-02T02:56:12.483Z,101756.78
2023-09-02T02:58:44.932Z,101760.25
2023-09-02T03:01:15.295Z,101768.19
2023-09-02T03:03:45.236Z,101769.00
2023-09-02T03:06:19.893Z,101776.84
2023-09-02T03:08:49.910Z,101775.06
2023-09-02T03:11:19.801Z,101783.03
2023-09-02T03:13:52.281Z,101782.91
2023-09-02T03:16:22.116Z,101780.28
2023-09-02T03:18:51.965Z,101775.78
2023-09-02T03:21:21.869Z,101783.69
2023-09-02T03:23:51.784Z,101783.63
2023-09-02T03:26:23.960Z,101786.25
2023-09-02T03:28:56.430Z,101781.75
2023-09-02T03:31:26.345Z,101780.88
2023-09-02T03:33:56.351Z,101784.34
2023-09-02T03:36:26.238Z,101791.34
2023-09-02T03:38:56.111Z,101793.09
2023-09-02T03:41:26.051Z,101793.94
2023-09-02T03:43:58.912Z,101792.16
2023-09-02T03:46:29.063Z,101800.03
2023-09-02T03:48:59.858Z,101789.41
2023-09-02T03:51:29.854Z,101795.56
2023-09-02T03:53:59.719Z,101798.19
2023-09-02T03:56:29.619Z,101799.06
2023-09-02T03:59:02.134Z,101798.19
2023-09-02T04:01:33.655Z,101797.25
2023-09-02T04:04:03.627Z,101809.59
2023-09-02T04:06:33.810Z,101809.53
2023-09-02T04:09:03.731Z,101806.81
2023-09-02T04:11:33.567Z,101808.53
2023-09-02T04:14:06.040Z,101814.75
2023-09-02T04:16:36.226Z,101815.59
2023-09-02T04:19:06.439Z,101818.22
2023-09-02T04:21:36.282Z,101819.91
2023-09-02T04:24:06.118Z,101820.75
2023-09-02T04:26:36.011Z,101817.13
2023-09-02T04:29:08.545Z,101825.00
2023-09-02T04:31:38.399Z,101832.03
2023-09-02T04:34:08.444Z,101824.09
2023-09-02T04:36:38.309Z,101832.03
2023-09-02T04:39:08.313Z,101836.38
2023-09-02T04:41:40.480Z,101831.09
2023-09-02T04:44:12.942Z,101840.72
2023-09-02T04:46:43.010Z,101831.91
2023-09-02T04:49:12.853Z,101836.31
2023-09-02T04:51:42.801Z,101834.50
2023-09-02T04:54:12.654Z,101839.78
2023-09-02T04:56:42.523Z,101837.13
2023-09-02T04:59:15.002Z,101842.44
2023-09-02T05:01:45.018Z,101845.97
2023-09-02T05:04:14.891Z,101850.44
2023-09-02T05:06:44.710Z,101850.47
2023-09-02T05:09:14.585Z,101854.13
2023-09-02T05:11:44.485Z,101858.63
2023-09-02T05:14:17.028Z,101858.72
2023-09-02T05:16:46.956Z,101865.88
2023-09-02T05:19:16.846Z,101865.91
2023-09-02T05:21:47.812Z,101866.84
2023-09-02T05:24:17.673Z,101858.06
2023-09-02T05:26:49.984Z,101866.06
2023-09-02T05:29:22.695Z,101874.03
2023-09-02T05:31:59.140Z,101875.88
2023-09-02T05:34:29.099Z,101873.28
2023-09-02T05:36:58.968Z,101879.50
2023-09-02T05:39:28.862Z,101883.09
2023-09-02T05:41:58.832Z,101877.81
2023-09-02T05:44:33.364Z,101881.50
2023-09-02T05:47:03.254Z,101886.13
2023-09-02T05:49:33.496Z,101885.31
2023-09-02T05:52:03.382Z,101888.94
2023-09-02T05:54:33.218Z,101889.81
2023-09-02T05:57:03.198Z,101876.69
2023-09-02T05:59:42.502Z,101880.28
2023-09-02T06:02:12.360Z,101892.81
2023-09-02T06:04:42.460Z,101877.84
2023-09-02T06:07:12.340Z,101880.66
2023-09-02T06:09:42.255Z,101884.34
2023-09-02T06:12:12.234Z,101891.56
2023-09-02T06:14:48.939Z,101890.94
2023-09-02T06:17:18.843Z,101895.59
2023-09-02T06:19:51.449Z,101898.50
2023-09-02T06:22:21.344Z,101899.59
2023-09-02T06:24:51.192Z,101907.78
2023-09-02T06:27:21.142Z,101917.78
2023-09-02T06:29:53.629Z,101911.84
2023-09-02T06:32:25.497Z,101919.31
2023-09-02T06:34:57.270Z,101922.31
2023-09-02T06:37:27.870Z,101926.13
2023-09-02T06:39:58.921Z,101930.84
2023-09-02T06:42:28.861Z,101939.97
2023-09-02T06:45:02.972Z,101938.50
2023-09-02T06:47:37.651Z,101942.28
2023-09-02T06:50:08.716Z,101953.22
2023-09-02T06:52:38.661Z,101947.28
2023-09-02T06:55:09.898Z,101958.22
2023-09-02T06:57:46.446Z,101961.28
2023-09-02T07:00:19.431Z,101959.91
2023-09-02T07:02:49.426Z,101963.91
2023-09-02T07:05:19.476Z,101960.81
2023-09-02T07:07:49.404Z,101956.75
2023-09-02T07:10:19.490Z,101950.94
2023-09-02T07:12:53.699Z,101954.81
2023-09-02T07:15:26.270Z,101962.25
2023-09-02T07:17:56.247Z,101960.75
2023-09-02T07:20:26.104Z,101958.28
2023-09-02T07:22:55.993Z,101960.31
2023-09-02T07:25:25.944Z,101968.53
2023-09-02T07:27:55.788Z,101965.22
2023-09-02T07:30:28.325Z,101971.72
2023-09-02T07:32:58.213Z,101970.19
2023-09-02T07:35:38.390Z,101983.78
2023-09-02T07:38:10.140Z,101988.50
2023-09-02T07:40:40.090Z,101994.03
2023-09-02T07:43:10.440Z,101977.22
2023-09-02T07:45:50.536Z,101980.88
2023-09-02T07:48:20.490Z,101985.44
2023-09-02T07:50:50.361Z,101991.78
2023-09-02T07:53:20.545Z,101989.13
2023-09-02T07:55:50.595Z,101995.41
2023-09-02T07:58:20.448Z,101989.19
2023-09-02T08:00:52.945Z,102000.84
2023-09-02T08:03:23.165Z,101994.56
2023-09-02T08:05:53.264Z,101994.59
2023-09-02T08:08:23.177Z,101991.00
2023-09-02T08:10:53.055Z,101996.41
2023-09-02T08:13:22.914Z,101993.75
2023-09-02T08:15:55.419Z,101996.44
2023-09-02T08:18:25.309Z,102003.56
2023-09-02T08:20:55.162Z,102006.28
2023-09-02T08:23:25.123Z,102010.75
2023-09-02T08:25:55.086Z,102014.31
2023-09-02T08:28:24.964Z,102008.94
2023-09-02T08:30:57.513Z,102011.63
2023-09-02T08:33:27.447Z,102024.16
2023-09-02T08:35:57.335Z,102025.06
2023-09-02T08:38:27.284Z,102022.34
2023-09-02T08:40:58.763Z,102025.94
2023-09-02T08:43:30.215Z,102023.25
2023-09-02T08:46:04.476Z,102030.41
2023-09-02T08:48:38.235Z,102025.03
2023-09-02T08:51:08.486Z,102027.72
2023-09-02T08:53:38.681Z,102031.28
2023-09-02T08:56:11.433Z,102040.22
2023-09-02T08:58:43.252Z,102035.78
2023-09-02T09:01:20.751Z,102041.13
2023-09-02T09:03:52.921Z,102051.91
2023-09-02T09:06:25.179Z,102059.03
2023-09-02T09:08:56.862Z,102066.19
2023-09-02T09:11:29.759Z,102071.59
2023-09-02T09:14:03.190Z,102079.63
2023-09-02T09:16:41.038Z,102080.50
2023-09-02T09:19:12.446Z,102080.50
2023-09-02T09:21:42.607Z,102078.72
2023-09-02T09:24:15.627Z,102090.34
2023-09-02T09:26:47.389Z,102084.03
2023-09-02T09:29:18.472Z,102089.44
2023-09-02T09:31:51.648Z,102093.91
2023-09-02T09:34:21.600Z,102098.38
2023-09-02T09:37:00.924Z,102095.72
2023-09-02T09:39:42.424Z,102101.13
2023-09-02T09:42:12.648Z,102100.22
2023-09-02T09:44:56.645Z,102100.22
2023-09-02T09:47:30.598Z,102100.22
2023-09-02T09:50:16.559Z,102102.91
2023-09-02T09:53:03.382Z,102109.16
2023-09-02T09:55:35.081Z,102108.25
2023-09-02T09:58:04.945Z,102109.16
2023-09-02T10:00:34.801Z,102110.94
2023-09-02T10:03:08.131Z,102112.78
2023-09-02T10:05:38.363Z,102117.25
2023-09-02T10:08:10.244Z,102127.06
2023-09-02T10:10:41.634Z,102125.25
2023-09-02T10:13:11.565Z,102126.13
2023-09-02T10:15:43.712Z,102129.69
2023-09-02T10:18:16.942Z,102127.91
2023-09-02T10:20:48.304Z,102140.41
2023-09-02T10:23:21.735Z,102145.75
2023-09-02T10:26:00.148Z,102146.66
2023-09-02T10:28:36.554Z,102141.25
2023-09-02T10:31:10.603Z,102148.38
2023-09-02T10:33:49.666Z,102152.84
2023-09-02T10:36:23.089Z,102149.22
2023-09-02T10:39:05.093Z,102151.00
2023-09-02T10:41:35.679Z,102156.34
2023-09-02T10:44:06.257Z,102152.78
2023-09-02T10:46:36.949Z,102153.66
2023-09-02T10:49:10.028Z,102158.06
2023-09-02T10:51:40.756Z,102146.41
2023-09-02T10:54:11.036Z,102157.16
2023-09-02T10:56:41.006Z,102155.31
2023-09-02T10:59:11.455Z,102146.34
2023-09-02T11:01:48.662Z,102162.44
2023-09-02T11:04:55.341Z,102149.94
2023-09-02T11:07:35.349Z,102155.34
2023-09-02T11:10:05.721Z,102160.75
2023-09-02T11:12:36.964Z,102162.56
2023-09-02T11:15:20.793Z,102172.41
2023-09-02T11:17:51.018Z,102176.00
2023-09-02T11:20:25.264Z,102171.53
2023-09-02T11:23:03.176Z,102173.28
2023-09-02T11:25:39.494Z,102172.41
2023-09-02T11:28:10.635Z,102180.47
2023-09-02T11:30:41.936Z,102181.34
2023-09-02T11:33:13.741Z,102185.84
2023-09-02T11:35:43.802Z,102181.34
2023-09-02T11:38:23.634Z,102178.66
2023-09-02T11:40:53.522Z,102185.84
2023-09-02T11:43:23.902Z,102182.25
2023-09-02T11:45:55.879Z,102184.03
2023-09-02T11:48:28.615Z,102192.94
2023-09-02T11:50:59.769Z,102183.97
2023-09-02T11:53:33.558Z,102193.81
2023-09-02T11:56:03.478Z,102189.34
2023-09-02T11:58:33.413Z,102189.31
2023-09-02T12:01:05.225Z,102191.06
2023-09-02T12:03:35.219Z,102183.03
2023-09-02T12:06:06.566Z,102184.81
2023-09-02T12:08:39.480Z,102195.53
2023-09-02T12:11:09.388Z,102194.63
2023-09-02T12:13:39.349Z,102183.91
2023-09-02T12:16:09.297Z,102182.13
2023-09-02T12:18:39.282Z,102177.66
2023-09-02T12:21:11.960Z,102183.06
2023-09-02T12:23:44.597Z,102181.28
2023-09-02T12:26:15.120Z,102182.16
2023-09-02T12:28:53.923Z,102183.91
2023-09-02T12:31:26.628Z,102184.84
2023-09-02T12:34:00.942Z,102187.50
2023-09-02T12:36:36.532Z,102185.75
2023-09-02T12:39:09.028Z,102185.72
2023-09-02T12:41:43.022Z,102184.78
2023-09-02T12:44:17.848Z,102183.84
2023-09-02T12:46:48.003Z,102183.00
2023-09-02T12:49:18.740Z,102174.03
2023-09-02T12:51:48.635Z,102173.16
2023-09-02T12:54:21.120Z,102172.22
2023-09-02T12:56:50.981Z,102175.78
2023-09-02T12:59:20.855Z,102169.56
2023-09-02T13:01:48.297Z,102158.81
2023-09-02T13:04:18.170Z,102156.16
2023-09-02T13:06:48.055Z,102154.38
2023-09-02T13:09:20.641Z,102162.41
2023-09-02T13:11:51.400Z,102157.03
2023-09-02T13:14:21.311Z,102157.06
2023-09-02T13:16:51.181Z,102165.06
2023-09-02T13:19:21.116Z,102167.75
2023-09-02T13:21:51.015Z,102164.09
2023-09-02T13:24:24.785Z,102157.78
2023-09-02T13:26:55.543Z,102163.22
2023-09-02T13:29:26.525Z,102169.47
2023-09-02T13:31:57.085Z,102177.53
2023-09-02T13:34:33.229Z,102170.41
2023-09-02T13:37:10.523Z,102176.66
2023-09-02T13:39:43.011Z,102171.31
2023-09-02T13:42:18.736Z,102173.06
2023-09-02T13:44:48.837Z,102159.56
2023-09-02T13:47:20.984Z,102163.13
2023-09-02T13:49:56.634Z,102167.63
2023-09-02T13:52:27.842Z,102170.25
2023-09-02T13:55:02.501Z,102174.72
2023-09-02T13:57:32.403Z,102171.13
2023-09-02T14:00:04.243Z,102160.44
2023-09-02T14:02:34.117Z,102173.88
2023-09-02T14:05:04.011Z,102184.66
2023-09-02T14:07:35.422Z,102180.16
2023-09-02T14:10:10.595Z,102178.41
2023-09-02T14:12:40.543Z,102188.22
2023-09-02T14:15:15.070Z,102189.97
2023-09-02T14:17:45.143Z,102192.56
2023-09-02T14:20:15.695Z,102191.69
2023-09-02T14:22:45.570Z,102210.44
2023-09-02T14:25:18.112Z,102198.84
2023-09-02T14:27:48.031Z,102207.81
2023-09-02T14:30:18.207Z,102212.34
2023-09-02T14:32:48.105Z,102213.25
2023-09-02T14:35:18.041Z,102210.56
2023-09-02T14:37:47.903Z,102213.25
2023-09-02T14:40:20.574Z,102219.53
2023-09-02T14:42:50.435Z,102218.63
2023-09-02T14:45:20.474Z,102227.53
2023-09-02T14:47:50.512Z,102228.44
2023-09-02T14:50:20.709Z,102226.66
2023-09-02T14:52:50.624Z,102231.06
2023-09-02T14:55:23.403Z,102239.13
2023-09-02T14:57:55.876Z,102234.56
2023-09-02T15:00:25.817Z,102233.63
2023-09-02T15:02:57.124Z,102224.63
2023-09-02T15:05:30.196Z,102232.56
2023-09-02T15:08:00.826Z,102236.13
2023-09-02T15:10:33.719Z,102238.84
2023-09-02T15:13:05.977Z,102250.44
2023-09-02T15:15:41.783Z,102250.41
2023-09-02T15:18:19.820Z,102258.44
2023-09-02T15:20:52.085Z,102260.19
2023-09-02T15:23:22.385Z,102256.59
2023-09-02T15:25:59.809Z,102253.91
2023-09-02T15:28:29.888Z,102261.06
2023-09-02T15:30:59.799Z,102260.09
2023-09-02T15:33:31.119Z,102267.22
2023-09-02T15:36:05.461Z,102272.53
2023-09-02T15:38:35.370Z,102276.13
2023-09-02T15:41:08.560Z,102277.81
2023-09-02T15:43:41.269Z,102290.31
2023-09-02T15:46:11.249Z,102297.41
2023-09-02T15:48:41.141Z,102292.91
2023-09-02T15:51:10.992Z,102290.13
2023-09-02T15:53:40.866Z,102289.09
2023-09-02T15:56:13.430Z,102289.00
2023-09-02T15:58:43.327Z,102298.72
2023-09-02T16:01:13.256Z,102310.38
2023-09-02T16:03:43.486Z,102312.16
2023-09-02T16:06:13.420Z,102309.50
2023-09-02T16:08:43.322Z,102303.25
2023-09-02T16:11:15.855Z,102305.97
2023-09-02T16:13:45.793Z,102308.63
2023-09-02T16:16:15.681Z,102311.22
2023-09-02T16:18:45.650Z,102313.00
2023-09-02T16:21:15.528Z,102316.56
2023-09-02T16:23:45.508Z,102328.22
2023-09-02T16:26:17.999Z,102326.31
2023-09-02T16:28:48.099Z,102336.97
2023-09-02T16:31:18.159Z,102336.09
2023-09-02T16:33:48.152Z,102327.09
2023-09-02T16:36:18.093Z,102328.81
2023-09-02T16:38:48.603Z,102323.44
2023-09-02T16:41:24.828Z,102326.91
2023-09-02T16:44:04.616Z,102326.88
2023-09-02T16:46:35.863Z,102323.31
2023-09-02T16:49:07.097Z,102322.44
2023-09-02T16:51:36.989Z,102326.84
2023-09-02T16:54:08.155Z,102323.25
2023-09-02T16:56:40.688Z,102327.66
2023-09-02T16:59:10.742Z,102328.53
2023-09-02T17:01:41.330Z,102319.53
2023-09-02T17:04:11.260Z,102328.41
2023-09-02T17:06:41.237Z,102331.06
2023-09-02T17:09:12.231Z,102326.66
2023-09-02T17:11:47.589Z,102332.94
2023-09-02T17:14:17.922Z,102335.59
2023-09-02T17:16:50.117Z,102330.22
2023-09-02T17:19:22.350Z,102333.75
2023-09-02T17:21:57.890Z,102335.50
2023-09-02T17:24:27.778Z,102329.25
2023-09-02T17:27:09.373Z,102322.13
2023-09-02T17:29:50.035Z,102328.41
2023-09-02T17:32:19.936Z,102328.41
2023-09-02T17:34:49.814Z,102330.19
2023-09-02T17:37:19.674Z,102330.16
2023-09-02T17:39:50.449Z,102325.69
2023-09-02T17:42:22.973Z,102322.97
2023-09-02T17:44:53.340Z,102330.03
2023-09-02T17:47:23.848Z,102330.03
2023-09-02T17:49:53.702Z,102329.13
2023-09-02T17:52:23.639Z,102330.91
2023-09-02T17:54:53.511Z,102314.84
2023-09-02T17:57:26.024Z,102305.84
2023-09-02T17:59:55.933Z,102311.19
2023-09-02T18:02:27.352Z,102324.44
2023-09-02T18:05:02.370Z,102328.88
2023-09-02T18:07:33.411Z,102339.50
2023-09-02T18:10:03.805Z,102339.50
2023-09-02T18:12:36.332Z,102335.91
2023-09-02T18:15:06.532Z,102336.78
2023-09-02T18:17:36.553Z,102338.53
2023-09-02T18:20:07.112Z,102344.72
2023-09-02T18:22:37.059Z,102351.78
2023-09-02T18:25:08.237Z,102360.63
2023-09-02T18:27:40.722Z,102354.31
2023-09-02T18:30:11.517Z,102350.66
2023-09-02T18:32:41.423Z,102352.38
2023-09-02T18:35:11.650Z,102345.16
2023-09-02T18:37:42.772Z,102350.47
2023-09-02T18:40:16.255Z,102360.25
2023-09-02T18:42:48.711Z,102365.59
2023-09-02T18:45:19.303Z,102361.16
2023-09-02T18:47:52.485Z,102373.56
2023-09-02T18:50:22.437Z,102374.47
2023-09-02T18:52:57.163Z,102377.06
2023-09-02T18:55:27.367Z,102380.59
2023-09-02T18:57:59.897Z,102385.84
2023-09-02T19:00:30.445Z,102390.19
2023-09-02T19:03:00.372Z,102394.59
2023-09-02T19:05:30.318Z,102392.72
2023-09-02T19:08:00.238Z,102397.94
2023-09-02T19:10:30.154Z,102402.28
2023-09-02T19:13:02.687Z,102404.91
2023-09-02T19:15:32.569Z,102413.75
2023-09-02T19:18:02.510Z,102404.81
2023-09-02T19:20:32.449Z,102411.00
2023-09-02T19:23:02.385Z,102420.72
2023-09-02T19:25:34.180Z,102426.03
2023-09-02T19:28:07.183Z,102426.81
2023-09-02T19:30:39.682Z,102422.34
2023-09-02T19:33:09.877Z,102432.03
2023-09-02T19:35:39.782Z,102423.84
2023-09-02T19:38:09.636Z,102423.75
2023-09-02T19:40:39.546Z,102430.75
2023-09-02T19:43:12.005Z,102437.75
2023-09-02T19:45:43.955Z,102438.53
2023-09-02T19:48:13.936Z,102433.16
2023-09-02T19:50:45.597Z,102438.41
2023-09-02T19:53:15.636Z,102436.56
2023-09-02T19:55:50.130Z,102437.38
2023-09-02T19:58:22.663Z,102433.72
2023-09-02T20:00:52.582Z,102437.16
2023-09-02T20:03:22.492Z,102435.38
2023-09-02T20:05:52.626Z,102435.28
2023-09-02T20:08:22.809Z,102425.47
2023-09-02T20:10:52.948Z,102425.34
2023-09-02T20:13:25.787Z,102422.69
2023-09-02T20:16:00.117Z,102421.75
2023-09-02T20:18:30.047Z,102426.13
2023-09-02T20:21:00.006Z,102425.09
2023-09-02T20:23:30.159Z,102427.69
2023-09-02T20:26:00.018Z,102432.97
2023-09-02T20:28:32.483Z,102440.00
2023-09-02T20:31:02.418Z,102441.72
2023-09-02T20:33:32.355Z,102448.75
2023-09-02T20:36:03.542Z,102453.19
2023-09-02T20:38:33.702Z,102458.44
2023-09-02T20:41:04.692Z,102465.56
2023-09-02T20:43:37.219Z,102467.28
2023-09-02T20:46:07.149Z,102475.25
2023-09-02T20:48:37.288Z,102472.47
2023-09-02T20:51:07.391Z,102477.81
2023-09-02T20:53:37.671Z,102480.31
2023-09-02T20:56:07.901Z,102473.09
2023-09-02T20:58:40.381Z,102474.84
2023-09-02T21:01:11.314Z,102473.00
2023-09-02T21:03:41.535Z,102469.41
2023-09-02T21:06:12.955Z,102483.59
2023-09-02T21:08:42.897Z,102486.22
2023-09-02T21:11:13.638Z,102480.84
2023-09-02T21:13:50.886Z,102485.31
2023-09-02T21:16:22.250Z,102492.34
2023-09-02T21:18:52.686Z,102488.78
2023-09-02T21:21:23.864Z,102486.06
2023-09-02T21:23:56.398Z,102492.19
2023-09-02T21:26:27.659Z,102502.91
2023-09-02T21:29:00.174Z,102503.75
2023-09-02T21:31:30.096Z,102517.06
2023-09-02T21:34:00.028Z,102510.72
2023-09-02T21:36:30.200Z,102500.88
2023-09-02T21:39:00.068Z,102502.59
2023-09-02T21:41:29.945Z,102498.06
2023-09-02T21:44:04.021Z,102502.50
2023-09-02T21:46:35.562Z,102502.50
2023-09-02T21:49:06.427Z,102502.44
2023-09-02T21:51:36.308Z,102505.09
2023-09-02T21:54:06.304Z,102498.88
2023-09-02T21:56:36.193Z,102490.09
2023-09-02T21:59:08.642Z,102487.50
2023-09-02T22:01:38.575Z,102493.84
2023-09-02T22:04:09.017Z,102490.31
2023-09-02T22:06:39.468Z,102509.06
2023-09-02T22:09:09.410Z,102516.19
2023-09-02T22:11:39.304Z,102517.13
2023-09-02T22:14:11.851Z,102528.69
2023-09-02T22:16:42.035Z,102514.47
2023-09-02T22:19:12.383Z,102517.13
2023-09-02T22:21:43.118Z,102525.97
2023-09-02T22:24:13.060Z,102529.50
2023-09-02T22:26:42.995Z,102520.56
2023-09-02T22:29:15.470Z,102520.53
2023-09-02T22:31:45.409Z,102520.47
2023-09-02T22:34:15.301Z,102515.16
2023-09-02T22:36:45.213Z,102515.97
2023-09-02T22:39:15.102Z,102509.75
2023-09-02T22:41:45.975Z,102507.84
2023-09-02T22:44:18.589Z,102521.97
2023-09-02T22:46:48.453Z,102520.13
2023-09-02T22:49:26.805Z,102519.13
2023-09-02T22:51:56.778Z,102530.59
2023-09-02T22:54:27.611Z,102534.91
2023-09-02T22:56:57.512Z,102532.22
2023-09-02T22:59:30.148Z,102541.06
2023-09-02T23:02:00.465Z,102553.41
2023-09-02T23:04:30.378Z,102546.22
2023-09-02T23:07:00.239Z,102544.38
2023-09-02T23:09:30.207Z,102546.97
2023-09-02T23:12:00.060Z,102558.47
2023-09-02T23:14:32.566Z,102553.84
2023-09-02T23:17:02.488Z,102550.19
2023-09-02T23:19:32.396Z,102554.53
2023-09-02T23:22:02.282Z,102564.22
2023-09-02T23:24:32.162Z,102566.69
2023-09-02T23:27:02.015Z,102571.94
2023-09-02T23:29:35.021Z,102580.66
2023-09-02T23:32:05.039Z,102585.00
2023-09-02T23:34:35.334Z,102580.47
2023-09-02T23:37:05.250Z,102580.34
2023-09-02T23:39:35.820Z,102583.78
2023-09-02T23:42:05.712Z,102586.38
2023-09-02T23:44:38.172Z,102590.75
2023-09-02T23:47:08.376Z,102600.41
2023-09-02T23:49:38.291Z,102605.66
2023-09-02T23:52:08.907Z,102594.97
2023-09-02T23:54:38.914Z,102578.06
2023-09-02T23:57:10.176Z,102589.56
2023-09-02T23:59:42.635Z,102583.28
